This is the latest recevied weather packets stored in our database for station/object WD0REW. If no packets are shown the sender has not sent any weather packets the latest 10 day(s).
| Time | Temp. | Humidity | Pressure | Rain* | Wind** | Luminosity | Snow |
|---|---|---|---|---|---|---|---|
| 1777554159 | 10° C | 73% | 1019.8 hPa | 0 mm | - | 108 W/m² | - |
| 1777553856 | 10° C | 75% | 1019.9 hPa | 0 mm | - | 90 W/m² | - |
| 1777553552 | 8.89° C | 80% | 1019.9 hPa | 0 mm | - | 63 W/m² | - |
| 1777553248 | 8.33° C | 84% | 1019.7 hPa | 0 mm | - | 65 W/m² | - |
| 1777552945 | 7.78° C | 87% | 1020 hPa | 0 mm | - | 56 W/m² | - |
| 1777552645 | 7.22° C | 90% | 1019.8 hPa | 0 mm | - | 59 W/m² | - |
| 1777552342 | 7.22° C | 94% | 1020.1 hPa | 0 mm | - | 46 W/m² | - |
| 1777552038 | 6.67° C | 95% | 1020.3 hPa | 0 mm | - | 46 W/m² | - |
| 1777551735 | 6.11° C | 95% | 1020 hPa | 0 mm | - | 42 W/m² | - |
| 1777551433 | 6.11° C | 96% | 1019.9 hPa | 0 mm | - | 35 W/m² | - |
| 1777551130 | 5.56° C | 96% | 1020.3 hPa | 0 mm | - | 33 W/m² | - |
| 1777550827 | 5.56° C | 96% | 1020.1 hPa | 0 mm | - | 32 W/m² | - |
| 1777550523 | 5° C | 96% | 1019.6 hPa | 0 mm | - | 30 W/m² | - |
| 1777550219 | 5° C | 95% | 1019.7 hPa | 0 mm | - | 26 W/m² | - |
| 1777549916 | 5° C | 95% | 1019.6 hPa | 0 mm | - | 24 W/m² | - |
| 1777549612 | 4.44° C | 95% | 1019.7 hPa | 0 mm | - | 19 W/m² | - |
| 1777549307 | 4.44° C | 95% | 1019.5 hPa | 0 mm | - | 15 W/m² | - |
| 1777549005 | 4.44° C | 95% | 1019.4 hPa | 0 mm | - | 11 W/m² | - |
| 1777548701 | 4.44° C | 95% | 1019.4 hPa | 0 mm | - | 7 W/m² | - |
| 1777548399 | 4.44° C | 95% | 1019.3 hPa | 0 mm | - | 5 W/m² | - |
| 1777548096 | 4.44° C | 95% | 1019.4 hPa | 0 mm | - | 2 W/m² | - |
| 1777547791 | 4.44° C | 95% | 1019.3 hPa | 0 mm | - | 1 W/m² | - |
| 1777547487 | 4.44° C | 95% | 1019.2 hPa | 0 mm | - | 1 W/m² | - |
| 1777547185 | 4.44° C | 95% | 1019.2 hPa | 0 mm | - | 0 W/m² | - |
| 1777546882 | 4.44° C | 94% | 1019.2 hPa | 0 mm | - | 0 W/m² | - |
* Rain latest hour (hover to see other rain measurements)
** Current wind speed in m/s (hover to see current wind gust speed)